Time;durP1;ratioP1;P1;durP2;ratioP2;P2;SDS_P1;SDS_P2;PMS_P1;PMS_P2;Temp;Humidity;BMP_temperature;BMP_pressure;BME280_temperature;BME280_humidity;BME280_pressure;Samples;Min_cycle;Max_cycle;Signal;HPM_P1;HPM_P2
2022/10/05 00:01:41;;;;;;;12.48;5.30;;;;;;;14.41;80.34;101720.19;5062348;28;20043;-78
2022/10/05 00:04:18;;;;;;;8.50;5.13;;;;;;;14.41;80.77;101722.84;5091903;28;20023;-78
2022/10/05 00:06:49;;;;;;;10.65;5.15;;;;;;;14.39;81.13;101722.00;5093208;28;20046;-78
2022/10/05 00:09:19;;;;;;;8.70;5.32;;;;;;;14.38;81.41;101725.59;5093250;28;20040;-78
2022/10/05 00:11:46;;;;;;;10.52;5.53;;;;;;;14.35;81.76;101723.88;5092759;28;20488;-78
2022/10/05 00:14:19;;;;;;;9.27;5.45;;;;;;;14.34;81.88;101715.91;5091513;28;20032;-78
2022/10/05 00:16:45;;;;;;;10.02;5.35;;;;;;;14.33;80.22;101715.06;5118895;27;20036;-77
2022/10/05 00:19:27;;;;;;;8.18;4.85;;;;;;;14.34;80.73;101706.16;5108746;28;20024;-78
2022/10/05 00:21:57;;;;;;;11.73;5.47;;;;;;;14.32;81.82;101705.31;5091424;28;20050;-78
2022/10/05 00:24:23;;;;;;;12.45;5.53;;;;;;;14.32;81.72;101707.97;5080808;28;20040;-78
2022/10/05 00:26:49;;;;;;;10.90;5.30;;;;;;;14.30;81.76;101701.81;5074862;28;20024;-78
2022/10/05 00:29:22;;;;;;;9.23;5.15;;;;;;;14.30;81.60;101701.81;5091215;28;20139;-78
2022/10/05 00:31:48;;;;;;;15.20;5.68;;;;;;;14.27;81.08;101699.22;5078745;28;20036;-78
2022/10/05 00:34:15;;;;;;;10.48;5.80;;;;;;;14.26;82.13;101702.78;5098729;28;20042;-78
2022/10/05 00:36:41;;;;;;;11.15;6.03;;;;;;;14.25;81.67;101697.50;5091306;28;20412;-78
2022/10/05 00:39:06;;;;;;;16.88;6.00;;;;;;;14.25;82.03;101690.38;5092353;28;20036;-78
2022/10/05 00:41:54;;;;;;;8.60;5.50;;;;;;;14.27;81.82;101695.66;5092469;28;20032;-78
2022/10/05 00:44:25;;;;;;;11.40;5.93;;;;;;;14.26;81.87;101691.25;5090807;28;20127;-78
2022/10/05 00:47:00;;;;;;;8.20;5.80;;;;;;;14.25;82.33;101703.72;5090991;28;20036;-78
2022/10/05 00:49:40;;;;;;;13.90;6.70;;;;;;;14.23;82.36;101700.19;5090925;28;20277;-78
2022/10/05 00:52:33;;;;;;;8.65;5.93;;;;;;;14.24;82.51;101698.41;5092175;28;20119;-78
2022/10/05 00:55:06;;;;;;;13.95;5.75;;;;;;;14.21;82.57;101696.69;5092107;28;20055;-78
2022/10/05 00:57:46;;;;;;;9.35;6.18;;;;;;;14.19;82.54;101699.41;5089857;28;20487;-78
2022/10/05 01:00:16;;;;;;;11.85;6.10;;;;;;;14.19;83.04;101696.75;5092052;28;20039;-78
2022/10/05 01:02:58;;;;;;;11.93;5.45;;;;;;;14.19;82.65;101698.50;5091950;28;20367;-78
2022/10/05 01:05:41;;;;;;;13.75;6.25;;;;;;;14.18;83.18;101692.31;5091935;28;20468;-78
2022/10/05 01:08:42;;;;;;;15.30;6.65;;;;;;;14.13;83.35;101688.88;5090337;28;20032;-78
2022/10/05 01:11:33;;;;;;;10.65;6.57;;;;;;;14.10;83.52;101680.97;5090314;28;20108;-78
2022/10/05 01:14:20;;;;;;;11.18;7.05;;;;;;;14.08;83.93;101676.59;5091155;28;20044;-78
2022/10/05 01:17:01;;;;;;;10.23;6.60;;;;;;;14.08;83.01;101674.78;5087605;28;20042;-78
2022/10/05 01:19:49;;;;;;;10.63;6.68;;;;;;;14.06;84.54;101673.06;5090191;28;20031;-78
2022/10/05 01:22:33;;;;;;;12.45;6.55;;;;;;;14.03;83.67;101675.81;5114849;27;20039;-78
2022/10/05 01:25:19;;;;;;;13.20;7.35;;;;;;;14.01;84.37;101661.66;5107060;28;20487;-78
2022/10/05 01:28:02;;;;;;;9.25;6.75;;;;;;;14.02;84.05;101661.63;5089989;28;20052;-78
2022/10/05 01:30:35;;;;;;;12.43;6.53;;;;;;;13.99;84.61;101664.34;5091539;28;20168;-78
2022/10/05 01:33:24;;;;;;;12.82;7.20;;;;;;;14.00;84.81;101665.25;5075989;28;20024;-78
2022/10/05 01:36:01;;;;;;;10.13;6.15;;;;;;;13.99;84.38;101661.69;5091294;28;20039;-78
2022/10/05 01:38:36;;;;;;;12.20;7.15;;;;;;;13.98;84.91;101666.13;5090352;28;20043;-78
2022/10/05 01:41:12;;;;;;;10.65;6.88;;;;;;;13.95;85.37;101662.69;5089628;28;20054;-78
2022/10/05 01:43:44;;;;;;;12.60;7.22;;;;;;;13.96;84.59;101659.09;5087917;28;20123;-78
2022/10/05 01:46:18;;;;;;;12.13;6.63;;;;;;;13.98;84.47;101662.59;5072465;28;20115;-78
2022/10/05 01:48:53;;;;;;;8.65;6.22;;;;;;;13.98;84.53;101654.63;5089911;28;20107;-78
2022/10/05 01:51:44;;;;;;;12.98;7.05;;;;;;;13.97;84.34;101652.84;5091163;28;20039;-78
2022/10/05 01:54:16;;;;;;;11.68;7.97;;;;;;;13.94;84.19;101639.59;5088789;28;20141;-78
2022/10/05 01:57:02;;;;;;;13.63;7.00;;;;;;;13.96;85.04;101629.81;5106700;28;20047;-78
2022/10/05 01:59:34;;;;;;;15.18;7.38;;;;;;;13.94;85.18;101628.97;5089729;28;20480;-78
2022/10/05 02:02:11;;;;;;;11.23;7.22;;;;;;;13.91;84.96;101619.25;5093052;28;20024;-78
2022/10/05 02:04:49;;;;;;;15.93;7.55;;;;;;;13.92;85.02;101623.69;5073096;28;20032;-78
2022/10/05 02:07:48;;;;;;;17.63;7.20;;;;;;;13.91;85.38;101613.06;5052634;28;20063;-77
2022/10/05 02:10:36;;;;;;;10.77;7.30;;;;;;;13.92;84.90;101620.13;5087009;28;20075;-78
2022/10/05 02:13:28;;;;;;;14.38;7.15;;;;;;;13.88;85.27;101613.13;5090921;28;20055;-78
2022/10/05 02:15:58;;;;;;;11.48;7.28;;;;;;;13.84;85.75;101612.31;5106325;28;20039;-78
2022/10/05 02:18:31;;;;;;;10.02;7.15;;;;;;;13.82;85.58;101614.13;5102408;28;20040;-78
2022/10/05 02:21:02;;;;;;;14.10;7.55;;;;;;;13.81;85.52;101615.06;5090089;28;20039;-78
2022/10/05 02:23:34;;;;;;;11.95;7.47;;;;;;;13.82;85.78;101616.78;5073134;28;20059;-77
2022/10/05 02:26:00;;;;;;;10.95;7.40;;;;;;;13.81;85.96;101606.19;5090106;28;20043;-77
2022/10/05 02:28:41;;;;;;;9.40;7.28;;;;;;;13.80;85.16;101594.69;5091380;28;20028;-77
2022/10/05 02:31:13;;;;;;;13.40;7.33;;;;;;;13.81;85.41;101600.88;5090403;28;20432;-77
2022/10/05 02:33:39;;;;;;;14.43;7.68;;;;;;;13.77;86.09;101590.31;5083884;28;20289;-78
2022/10/05 02:36:31;;;;;;;9.07;6.53;;;;;;;13.81;85.60;101592.88;5074048;28;20020;-77
2022/10/05 02:39:05;;;;;;;12.25;7.30;;;;;;;13.80;85.94;101588.47;5089829;28;20039;-77
2022/10/05 02:42:12;;;;;;;9.95;7.18;;;;;;;13.82;85.60;101594.63;5106695;28;20028;-78
2022/10/05 02:45:03;;;;;;;15.30;7.00;;;;;;;13.80;85.46;101580.47;5084059;28;20130;-78
2022/10/05 02:47:28;;;;;;;9.75;6.43;;;;;;;13.78;85.70;101585.84;5089750;28;20044;-77
2022/10/05 02:50:23;;;;;;;14.10;7.05;;;;;;;13.79;85.74;101592.91;5089895;28;20371;-77
2022/10/05 02:53:09;;;;;;;12.35;6.88;;;;;;;13.76;85.97;101566.38;5089547;28;20105;-77
2022/10/05 02:55:54;;;;;;;13.18;8.20;;;;;;;13.76;86.21;101564.56;5090015;28;20028;-77
2022/10/05 02:58:26;;;;;;;14.85;7.70;;;;;;;13.75;85.96;101562.84;5089757;28;20024;-77
2022/10/05 03:01:21;;;;;;;12.50;7.78;;;;;;;13.74;85.85;101553.09;5089825;28;20028;-78
2022/10/05 03:04:25;;;;;;;12.77;7.15;;;;;;;13.76;85.81;101555.72;5064789;28;20044;-77
2022/10/05 03:07:27;;;;;;;12.65;7.60;;;;;;;13.71;86.08;101557.63;5069386;28;20028;-77
2022/10/05 03:10:01;;;;;;;12.52;6.93;;;;;;;13.71;85.79;101555.84;5084646;28;20032;-77
2022/10/05 03:12:50;;;;;;;10.73;6.95;;;;;;;13.73;86.53;101548.69;5080719;28;20044;-77
2022/10/05 03:15:33;;;;;;;12.82;7.40;;;;;;;13.72;86.19;101549.63;5088860;28;20388;-77
2022/10/05 03:18:28;;;;;;;12.10;7.25;;;;;;;13.71;86.19;101555.84;5072451;28;20051;-77
2022/10/05 03:21:06;;;;;;;10.75;7.00;;;;;;;13.70;86.54;101554.09;5044684;28;20040;-77
2022/10/05 03:23:45;;;;;;;10.00;7.65;;;;;;;13.73;86.20;101545.16;5092679;28;20115;-77
2022/10/05 03:26:26;;;;;;;14.02;7.82;;;;;;;13.72;86.54;101543.38;5093302;28;20035;-77
2022/10/05 03:29:07;;;;;;;15.43;7.30;;;;;;;13.72;86.29;101548.72;5109813;28;20379;-77
2022/10/05 03:31:50;;;;;;;16.88;6.95;;;;;;;13.73;86.02;101550.47;5110002;28;20123;-77
2022/10/05 03:34:28;;;;;;;13.77;7.43;;;;;;;13.72;86.46;101548.72;5122386;27;20044;-77
2022/10/05 03:37:13;;;;;;;10.88;6.95;;;;;;;13.71;86.30;101541.66;5092769;28;20036;-77
2022/10/05 03:39:58;;;;;;;12.80;7.53;;;;;;;13.72;86.66;101546.06;5109966;28;20064;-78
2022/10/05 03:42:52;;;;;;;11.40;7.40;;;;;;;13.71;86.31;101545.19;5109616;28;20032;-78
2022/10/05 03:45:18;;;;;;;10.13;6.78;;;;;;;13.68;86.69;101549.72;5087498;28;20085;-77
2022/10/05 03:47:49;;;;;;;9.23;6.35;;;;;;;13.68;86.01;101539.06;5093991;28;20023;-77
2022/10/05 03:50:33;;;;;;;13.20;7.07;;;;;;;13.67;86.44;101548.81;5092805;28;20043;-77
2022/10/05 03:53:04;;;;;;;11.60;7.30;;;;;;;13.65;85.66;101539.13;5090125;28;20496;-77
2022/10/05 03:55:39;;;;;;;11.35;7.22;;;;;;;13.66;86.94;101549.75;5092696;28;20088;-77
2022/10/05 03:58:14;;;;;;;11.27;7.45;;;;;;;13.63;86.58;101543.63;5092585;28;20447;-77
2022/10/05 04:00:43;;;;;;;8.32;6.00;;;;;;;13.64;86.63;101550.69;5109483;28;20043;-78
2022/10/05 04:03:24;;;;;;;10.63;6.75;;;;;;;13.65;87.16;101550.66;5092169;28;20016;-78
2022/10/05 04:05:55;;;;;;;10.93;7.05;;;;;;;13.64;87.18;101543.56;5109430;28;20067;-77
2022/10/05 04:08:50;;;;;;;15.85;7.10;;;;;;;13.68;86.66;101544.41;5109161;28;20027;-77
2022/10/05 04:11:32;;;;;;;13.57;7.65;;;;;;;13.63;86.94;101541.84;5109163;28;20034;-77
2022/10/05 04:14:20;;;;;;;13.50;8.30;;;;;;;13.66;87.15;101548.88;5091455;28;20044;-78
2022/10/05 04:16:51;;;;;;;13.13;7.28;;;;;;;13.64;86.61;101548.91;5090841;28;20398;-77
2022/10/05 04:19:22;;;;;;;10.68;6.88;;;;;;;13.64;86.98;101548.03;5092186;28;20085;-77
2022/10/05 04:21:55;;;;;;;13.50;7.57;;;;;;;13.63;86.28;101543.63;5102966;28;20062;-78
2022/10/05 04:24:31;;;;;;;10.35;6.60;;;;;;;13.64;87.06;101543.56;5091986;28;20039;-77
2022/10/05 04:27:02;;;;;;;9.75;6.75;;;;;;;13.61;87.01;101542.78;5091813;28;20503;-77
2022/10/05 04:29:35;;;;;;;13.48;7.45;;;;;;;13.57;87.39;101547.28;5091795;28;20032;-78
2022/10/05 04:32:29;;;;;;;11.02;7.25;;;;;;;13.57;87.42;101544.63;5091733;28;20459;-77
2022/10/05 04:35:05;;;;;;;13.27;7.50;;;;;;;13.54;87.54;101542.03;5095866;28;20032;-77
2022/10/05 04:37:42;;;;;;;10.43;7.22;;;;;;;13.52;87.63;101536.75;5089314;28;20032;-78
2022/10/05 04:40:48;;;;;;;14.88;7.45;;;;;;;13.53;87.61;101537.63;5092963;28;20036;-78
2022/10/05 04:43:17;;;;;;;13.65;7.80;;;;;;;13.50;87.67;101535.03;5108388;28;20032;-78
2022/10/05 04:46:02;;;;;;;13.63;7.90;;;;;;;13.50;87.52;101530.59;5079873;28;20044;-78
2022/10/05 04:48:34;;;;;;;10.18;7.20;;;;;;;13.50;86.25;101527.03;5092924;28;20564;-77
2022/10/05 04:51:11;;;;;;;12.20;7.28;;;;;;;13.51;87.25;101532.34;5091658;28;20047;-77
2022/10/05 04:54:02;;;;;;;10.82;7.30;;;;;;;13.50;87.49;101524.38;5091593;28;20027;-77
2022/10/05 04:56:35;;;;;;;;;;;;;;;13.58;86.57;101522.44;5091550;28;20036;-77
2022/10/05 04:59:25;;;;;;;9.75;6.97;;;;;;;13.52;86.50;101517.25;5091406;28;19957;-77
2022/10/05 05:02:20;;;;;;;15.75;6.55;;;;;;;13.53;86.81;101519.00;5095943;28;20035;-77
2022/10/05 05:05:07;;;;;;;12.23;7.30;;;;;;;13.50;87.04;101527.94;5081631;28;20059;-77
2022/10/05 05:08:04;;;;;;;12.65;6.50;;;;;;;13.50;86.46;101522.63;5090952;28;20047;-77
2022/10/05 05:10:30;;;;;;;13.93;6.35;;;;;;;13.49;86.38;101525.31;5079582;28;20122;-77
2022/10/05 05:13:22;;;;;;;16.23;7.30;;;;;;;13.50;86.38;101511.97;5075846;28;20175;-77
2022/10/05 05:16:06;;;;;;;9.73;6.30;;;;;;;13.54;85.74;101510.09;5116073;27;20111;-77
2022/10/05 05:18:44;;;;;;;9.32;6.75;;;;;;;13.53;85.95;101506.56;5072984;28;20471;-77
2022/10/05 05:21:19;;;;;;;9.85;5.82;;;;;;;13.57;85.25;101517.16;5114167;27;20034;-77
2022/10/05 05:24:00;;;;;;;8.98;5.75;;;;;;;13.54;85.57;101505.66;5076933;28;20239;-77
2022/10/05 05:26:37;;;;;;;13.82;6.32;;;;;;;13.54;85.61;101510.09;5101313;28;20131;-77
2022/10/05 05:29:06;;;;;;;8.73;5.50;;;;;;;13.52;86.07;101502.16;5111130;28;20031;-77
2022/10/05 05:31:48;;;;;;;15.48;6.03;;;;;;;13.54;86.25;101510.09;5108836;28;20038;-77
2022/10/05 05:35:01;;;;;;;10.40;5.82;;;;;;;13.54;85.66;101507.44;5067924;28;20044;-77
2022/10/05 05:37:32;;;;;;;9.57;5.50;;;;;;;13.52;85.72;101504.81;5059089;28;20044;-78
2022/10/05 05:40:04;;;;;;;8.50;5.32;;;;;;;13.55;85.83;101503.91;5087421;28;20036;-77
2022/10/05 05:42:42;;;;;;;8.35;5.68;;;;;;;13.55;85.88;101510.09;5088461;28;20028;-77
2022/10/05 05:45:22;;;;;;;14.32;5.25;;;;;;;13.53;85.54;101498.59;5059968;28;20039;-77
2022/10/05 05:47:53;;;;;;;9.38;5.38;;;;;;;13.51;85.60;101496.88;5090184;28;20047;-78
2022/10/05 05:50:40;;;;;;;9.20;5.80;;;;;;;13.52;85.78;101499.50;5089806;28;20160;-77
2022/10/05 05:53:20;;;;;;;10.20;5.28;;;;;;;13.52;86.03;101493.28;5089372;28;20035;-77
2022/10/05 05:55:55;;;;;;;10.45;5.97;;;;;;;13.53;85.66;101503.06;5089317;28;20383;-77
2022/10/05 05:58:53;;;;;;;8.77;5.20;;;;;;;13.52;85.84;101498.63;5073082;28;20035;-77
2022/10/05 06:01:30;;;;;;;9.10;6.03;;;;;;;13.50;86.01;101488.03;5072119;28;20391;-77
2022/10/05 06:04:08;;;;;;;14.30;6.38;;;;;;;13.48;86.27;101495.16;5086712;28;20024;-77
2022/10/05 06:06:39;;;;;;;8.40;5.13;;;;;;;13.47;85.59;101489.88;5085597;28;20028;-77
2022/10/05 06:09:15;;;;;;;9.35;4.97;;;;;;;13.49;86.25;101493.38;5089430;28;20067;-78
2022/10/05 06:12:12;;;;;;;7.97;5.50;;;;;;;13.48;85.86;101491.63;5080581;28;20066;-77
2022/10/05 06:14:49;;;;;;;11.35;5.93;;;;;;;13.47;86.53;101492.53;5089270;28;20036;-77
2022/10/05 06:17:27;;;;;;;9.65;5.22;;;;;;;13.46;86.63;101498.78;5082641;28;20033;-77
2022/10/05 06:19:59;;;;;;;8.25;5.25;;;;;;;13.47;86.18;101492.53;5068163;28;20039;-77
2022/10/05 06:22:33;;;;;;;16.25;5.65;;;;;;;13.49;86.48;101498.69;5077183;28;20387;-77
2022/10/05 06:25:11;;;;;;;9.90;4.70;;;;;;;13.51;85.83;101502.19;5107801;28;20105;-77
2022/10/05 06:28:11;;;;;;;7.25;4.70;;;;;;;13.51;85.38;101496.88;5089344;28;20069;-77
2022/10/05 06:30:58;;;;;;;7.05;4.53;;;;;;;13.51;85.63;101495.09;5089286;28;20391;-77
2022/10/05 06:33:42;;;;;;;8.75;4.82;;;;;;;13.51;85.83;101497.75;5071290;28;20036;-77
2022/10/05 06:36:26;;;;;;;9.00;4.65;;;;;;;13.52;85.86;101493.28;5075430;28;20033;-77
2022/10/05 06:39:09;;;;;;;7.28;4.70;;;;;;;13.52;85.98;101487.97;5088868;28;20447;-78
2022/10/05 06:41:53;;;;;;;6.28;4.75;;;;;;;13.51;86.08;101487.09;5087018;28;20076;-77
2022/10/05 06:44:35;;;;;;;7.75;4.80;;;;;;;13.52;86.03;101493.28;5075264;28;20062;-77
2022/10/05 06:47:45;;;;;;;;;;;;;;;13.59;85.40;101494.03;5067032;28;20040;-77
2022/10/05 06:50:30;;;;;;;5.78;4.07;;;;;;;13.56;85.46;101497.66;5073258;28;20053;-77
2022/10/05 06:53:38;;;;;;;10.10;4.50;;;;;;;13.60;85.50;101496.66;5082805;28;20039;-77
2022/10/05 06:56:16;;;;;;;7.43;4.75;;;;;;;13.60;85.42;101496.66;5092748;28;20032;-76
2022/10/05 06:59:00;;;;;;;6.07;4.07;;;;;;;13.62;85.55;101496.63;5076214;28;20079;-77
2022/10/05 07:01:44;;;;;;;7.00;4.35;;;;;;;13.64;84.91;101494.78;5092941;28;20035;-77
2022/10/05 07:04:36;;;;;;;7.93;4.47;;;;;;;13.66;85.20;101498.31;5092587;28;20032;-77
2022/10/05 07:07:36;;;;;;;7.13;4.30;;;;;;;13.68;85.00;101499.16;5071530;28;20414;-76
2022/10/05 07:10:02;;;;;;;5.88;3.90;;;;;;;13.70;84.99;101510.63;5065394;28;20455;-76
2022/10/05 07:12:44;;;;;;;7.07;4.10;;;;;;;13.72;85.13;101511.44;5092426;28;20078;-77
2022/10/05 07:15:34;;;;;;;7.20;4.00;;;;;;;13.74;84.87;101509.63;5091461;28;20441;-76
2022/10/05 07:18:30;;;;;;;9.75;4.13;;;;;;;13.85;83.70;101496.06;5092380;28;20043;-76
2022/10/05 07:21:12;;;;;;;7.20;4.50;;;;;;;13.84;84.19;101503.16;5084176;28;20473;-77
2022/10/05 07:23:48;;;;;;;7.30;3.95;;;;;;;13.86;83.81;101503.13;5093319;28;20513;-77
2022/10/05 07:26:13;;;;;;;7.65;4.18;;;;;;;13.92;83.68;101506.53;5084436;28;20061;-77
2022/10/05 07:29:14;;;;;;;6.75;4.35;;;;;;;14.00;83.58;101514.31;5049309;28;20131;-78
2022/10/05 07:31:45;;;;;;;6.80;3.90;;;;;;;14.03;83.59;101516.03;5030496;28;20048;-77
2022/10/05 07:34:32;;;;;;;6.60;4.30;;;;;;;14.01;83.49;101510.72;5070990;28;20135;-77
2022/10/05 07:40:36;;;;;;;6.55;3.88;;;;;;;14.09;83.39;101507.88;5054522;28;20039;-77
2022/10/05 07:43:20;;;;;;;7.07;4.32;;;;;;;14.14;83.47;101511.28;5041601;28;20479;-76
2022/10/05 07:45:53;;;;;;;7.28;4.18;;;;;;;14.17;83.53;101514.75;5054396;28;20032;-77
2022/10/05 07:48:31;;;;;;;9.15;4.60;;;;;;;14.20;83.06;101508.47;5091843;28;20087;-77
2022/10/05 07:51:02;;;;;;;7.72;4.20;;;;;;;14.22;83.82;101511.97;5091335;28;20050;-77
2022/10/05 07:53:35;;;;;;;7.47;4.18;;;;;;;14.25;83.47;101511.91;5079143;28;20100;-77
2022/10/05 07:56:14;;;;;;;9.02;4.22;;;;;;;14.27;83.50;101515.41;5068415;28;20475;-77
2022/10/05 07:58:45;;;;;;;9.00;4.18;;;;;;;14.31;83.83;101510.84;5076102;28;20484;-77
2022/10/05 08:01:23;;;;;;;6.30;4.05;;;;;;;14.34;83.72;101517.00;5090880;28;20040;-77
2022/10/05 08:04:14;;;;;;;5.97;4.22;;;;;;;14.43;83.66;101509.66;5079778;28;20079;-77
2022/10/05 08:06:47;;;;;;;7.15;3.97;;;;;;;14.47;83.03;101506.00;5079792;28;20460;-76
2022/10/05 08:09:31;;;;;;;6.47;3.92;;;;;;;14.51;82.96;101508.50;5105918;28;20168;-77
2022/10/05 08:12:09;;;;;;;7.15;4.10;;;;;;;14.56;82.37;101509.31;5080852;28;20036;-77
2022/10/05 08:15:02;;;;;;;9.20;3.97;;;;;;;14.60;82.93;101499.44;5112220;27;20043;-77
2022/10/05 08:17:33;;;;;;;7.57;3.95;;;;;;;14.69;83.01;101504.50;5101923;28;20482;-77
2022/10/05 08:20:05;;;;;;;9.98;4.43;;;;;;;14.81;83.11;101495.25;5113040;28;20053;-77
2022/10/05 08:22:38;;;;;;;9.93;3.97;;;;;;;14.88;82.67;101486.16;5107427;28;20027;-77
2022/10/05 08:25:13;;;;;;;5.82;3.88;;;;;;;14.93;81.31;101489.56;5081333;28;20036;-77
2022/10/05 08:27:45;;;;;;;5.57;4.00;;;;;;;14.95;81.51;101492.22;5092542;28;20093;-77
2022/10/05 08:30:14;;;;;;;7.10;4.18;;;;;;;14.95;80.82;101485.06;5078760;28;20504;-77
2022/10/05 08:32:50;;;;;;;6.47;4.28;;;;;;;14.98;81.48;101484.97;5073859;28;20024;-77
2022/10/05 08:35:37;;;;;;;8.25;4.07;;;;;;;15.05;81.73;101491.00;5092676;28;20075;-77
2022/10/05 08:38:15;;;;;;;6.75;4.10;;;;;;;15.10;80.94;101485.53;5095943;28;20026;-77
2022/10/05 08:40:59;;;;;;;8.85;3.88;;;;;;;15.18;80.81;101481.72;5092319;28;20113;-77
2022/10/05 08:43:28;;;;;;;12.25;3.60;;;;;;;15.25;80.66;101485.06;5106287;28;20039;-77
2022/10/05 08:46:11;;;;;;;7.18;3.85;;;;;;;15.30;80.56;101476.91;5088811;28;20032;-77
2022/10/05 08:48:57;;;;;;;7.78;3.88;;;;;;;15.37;80.66;101475.81;5090725;28;20039;-77
2022/10/05 08:51:28;;;;;;;9.27;3.63;;;;;;;15.41;79.95;101473.00;5078020;28;20036;-76
2022/10/05 08:54:32;;;;;;;5.32;3.50;;;;;;;15.49;79.41;101481.63;5090604;28;20040;-76
2022/10/05 08:57:15;;;;;;;5.55;3.35;;;;;;;15.49;79.54;101470.94;5082163;28;20040;-77
2022/10/05 08:59:53;;;;;;;9.27;3.80;;;;;;;15.54;79.19;101469.94;5084786;28;20042;-76
2022/10/05 09:02:43;;;;;;;6.00;3.55;;;;;;;15.59;79.45;101467.97;5083618;28;20039;-77
2022/10/05 09:05:47;;;;;;;5.85;3.13;;;;;;;15.76;79.16;101464.78;5070350;28;20060;-77
2022/10/05 09:08:34;;;;;;;5.75;3.28;;;;;;;15.82;78.11;101462.75;5007940;28;20052;-77
2022/10/05 09:11:23;;;;;;;6.57;3.60;;;;;;;15.87;78.18;101459.94;5009483;28;20046;-77
2022/10/05 09:14:06;;;;;;;9.30;3.67;;;;;;;15.96;77.84;101456.97;5070475;28;20047;-77
2022/10/05 09:16:40;;;;;;;8.68;3.38;;;;;;;16.01;77.69;101459.47;5085539;28;20067;-75
2022/10/05 09:19:24;;;;;;;5.50;3.40;;;;;;;16.04;77.39;101462.03;5081319;28;20066;-77
2022/10/05 09:22:20;;;;;;;6.55;3.53;;;;;;;16.01;77.04;101456.81;5090094;28;20070;-77
2022/10/05 09:25:11;;;;;;;8.95;3.55;;;;;;;16.02;76.97;101454.09;5062766;28;20047;-75
2022/10/05 09:27:41;;;;;;;8.85;3.40;;;;;;;16.09;77.79;101457.41;5090056;28;20062;-76
2022/10/05 09:30:22;;;;;;;7.03;3.15;;;;;;;16.15;76.26;101456.31;5090389;28;20036;-76
2022/10/05 09:33:15;;;;;;;5.13;2.92;;;;;;;16.13;76.86;101449.22;5077802;28;20067;-76
2022/10/05 09:35:59;;;;;;;5.65;3.20;;;;;;;16.20;76.93;101459.72;5090127;28;20051;-77
2022/10/05 09:38:59;;;;;;;5.95;3.13;;;;;;;16.26;76.35;101455.00;5080318;28;20120;-75
2022/10/05 09:41:43;;;;;;;7.00;3.00;;;;;;;16.30;75.54;101451.31;5036056;28;20076;-76
2022/10/05 09:44:36;;;;;;;5.85;3.20;;;;;;;16.34;75.93;101436.91;5089702;28;20036;-77
2022/10/05 09:47:40;;;;;;;9.07;3.50;;;;;;;16.43;75.62;101442.84;5082001;28;20101;-76
2022/10/05 09:50:24;;;;;;;7.22;3.08;;;;;;;16.43;75.58;101446.38;5069387;28;20031;-76
2022/10/05 09:52:52;;;;;;;5.20;3.00;;;;;;;16.47;75.69;101442.69;5089744;28;20468;-77
2022/10/05 09:55:46;;;;;;;5.55;3.00;;;;;;;16.53;74.85;101433.56;5079758;28;20344;-77
2022/10/05 09:58:49;;;;;;;5.50;3.15;;;;;;;16.54;75.14;101428.16;5089457;28;20114;-77
2022/10/05 10:01:33;;;;;;;5.40;2.95;;;;;;;16.59;75.00;101419.06;5089734;28;20407;-77
2022/10/05 10:04:19;;;;;;;7.70;3.05;;;;;;;16.65;74.95;101418.84;5083126;28;20111;-76
2022/10/05 10:07:16;;;;;;;4.07;2.80;;;;;;;16.77;74.11;101419.25;5049282;28;20044;-77
2022/10/05 10:10:02;;;;;;;5.75;2.85;;;;;;;16.73;74.74;101411.41;5072087;28;20033;-76
2022/10/05 10:12:46;;;;;;;4.00;2.83;;;;;;;16.76;73.80;101413.94;5089059;28;20499;-76
2022/10/05 10:15:32;;;;;;;6.07;3.10;;;;;;;16.88;74.38;101399.28;5108164;27;20044;-77
2022/10/05 10:18:10;;;;;;;6.35;2.70;;;;;;;17.00;74.66;101395.25;5090875;28;20057;-77
2022/10/05 10:21:16;;;;;;;5.72;2.80;;;;;;;17.12;73.84;101398.31;5110006;28;20373;-77
2022/10/05 10:24:19;;;;;;;11.70;3.20;;;;;;;17.17;72.69;101396.31;5086618;28;20059;-76
2022/10/05 10:27:03;;;;;;;5.32;2.85;;;;;;;17.17;73.20;101385.59;5076543;28;20043;-76
2022/10/05 10:30:02;;;;;;;5.07;3.00;;;;;;;17.31;73.45;101389.50;5080785;28;20360;-76
2022/10/05 10:32:46;;;;;;;7.03;2.80;;;;;;;17.41;71.67;101397.13;5110904;27;20574;-76
2022/10/05 10:35:33;;;;;;;6.75;2.92;;;;;;;17.48;71.87;101395.06;5076683;28;20479;-76
2022/10/05 10:38:18;;;;;;;7.88;2.97;;;;;;;17.49;71.44;101385.22;5104890;27;20027;-76
2022/10/05 10:41:11;;;;;;;7.00;2.67;;;;;;;17.65;71.28;101380.94;5114378;28;20027;-76
2022/10/05 10:43:38;;;;;;;5.38;2.83;;;;;;;17.78;71.28;101379.50;5109017;28;20029;-76
2022/10/05 10:46:30;;;;;;;5.60;2.47;;;;;;;17.86;70.91;101378.31;5097735;28;20022;-76
2022/10/05 10:49:14;;;;;;;5.00;2.60;;;;;;;17.87;71.51;101377.38;5096959;28;20218;-76
2022/10/05 10:52:02;;;;;;;6.85;3.03;;;;;;;17.88;70.51;101373.72;5090618;28;20490;-76
2022/10/05 10:54:47;;;;;;;14.40;3.60;;;;;;;17.86;71.59;101363.09;5114355;28;20039;-76
2022/10/05 10:57:24;;;;;;;6.75;2.72;;;;;;;17.89;71.07;101368.31;5115148;28;20118;-76
2022/10/05 11:00:14;;;;;;;4.50;2.53;;;;;;;17.97;71.03;101365.31;5100594;28;20084;-76
2022/10/05 11:03:07;;;;;;;4.72;2.80;;;;;;;17.99;70.60;101368.78;5097042;28;20051;-76
2022/10/05 11:06:01;;;;;;;8.32;2.75;;;;;;;17.98;69.34;101367.06;5114407;28;20042;-77
2022/10/05 11:08:36;;;;;;;4.05;2.40;;;;;;;17.98;69.88;101349.16;5107996;28;20039;-76
2022/10/05 11:11:28;;;;;;;7.50;3.13;;;;;;;18.08;69.98;101362.16;5094361;28;20054;-76
2022/10/05 11:14:19;;;;;;;8.45;2.47;;;;;;;18.05;69.50;101360.47;5092194;28;20048;-76
2022/10/05 11:17:06;;;;;;;4.95;2.60;;;;;;;18.04;68.81;101358.72;5092320;28;20410;-76
2022/10/05 11:19:35;;;;;;;13.05;2.90;;;;;;;18.12;69.77;101358.38;5094254;28;20043;-77
2022/10/05 11:22:24;;;;;;;6.88;2.42;;;;;;;18.19;69.88;101343.78;5094245;28;20024;-76
2022/10/05 11:25:14;;;;;;;5.03;2.47;;;;;;;18.33;69.97;101346.69;5089112;28;20581;-76
2022/10/05 11:27:58;;;;;;;10.50;2.80;;;;;;;18.27;69.13;101341.59;5074163;28;20024;-76
2022/10/05 11:30:54;;;;;;;9.27;2.70;;;;;;;18.26;69.63;101339.88;5087695;28;20540;-76
2022/10/05 11:33:57;;;;;;;4.70;2.08;;;;;;;18.54;67.65;101327.84;5094037;28;20084;-77
2022/10/05 11:36:37;;;;;;;3.97;2.13;;;;;;;18.58;67.50;101326.78;5080704;28;20464;-76
2022/10/05 11:39:24;;;;;;;4.97;2.35;;;;;;;18.80;68.05;101322.16;5093564;28;20028;-77
2022/10/05 11:41:59;;;;;;;9.18;2.40;;;;;;;18.88;66.55;101319.09;5093575;28;20036;-77
2022/10/05 11:44:45;;;;;;;4.28;2.35;;;;;;;18.99;66.42;101311.38;5109358;28;20054;-76
2022/10/05 11:47:16;;;;;;;9.75;2.30;;;;;;;19.09;66.32;101311.81;5093625;28;20392;-76
2022/10/05 11:50:05;;;;;;;;;;;;;;;19.25;65.94;101311.88;5094048;28;20035;-76
2022/10/05 11:53:17;;;;;;;5.95;2.17;;;;;;;19.51;64.68;101311.44;5091638;28;19916;-77
2022/10/05 11:55:45;;;;;;;3.72;2.05;;;;;;;19.52;63.93;101296.16;5085059;28;20059;-77
2022/10/05 11:58:23;;;;;;;4.80;1.95;;;;;;;19.46;65.14;101307.22;5091301;28;20430;-76
2022/10/05 12:00:53;;;;;;;5.55;2.10;;;;;;;19.53;63.50;101295.22;5090994;28;20468;-76
2022/10/05 12:03:35;;;;;;;5.90;2.20;;;;;;;19.52;63.65;101288.13;5099348;28;20496;-77
2022/10/05 12:06:14;;;;;;;2.97;1.90;;;;;;;19.69;63.30;101280.06;5087372;28;20783;-75
2022/10/05 12:08:46;;;;;;;3.30;1.90;;;;;;;19.84;63.20;101277.53;5091983;28;20069;-76
2022/10/05 12:11:36;;;;;;;7.80;2.35;;;;;;;19.92;64.07;101264.53;5092924;28;20495;-76
2022/10/05 12:14:15;;;;;;;4.50;2.10;;;;;;;20.07;62.10;101273.56;5090799;28;20052;-76
2022/10/05 12:16:57;;;;;;;6.20;2.15;;;;;;;19.90;62.50;101259.22;5091615;28;20035;-76
2022/10/05 12:19:35;;;;;;;4.38;2.00;;;;;;;19.86;62.42;101251.44;5093159;28;20036;-76
2022/10/05 12:22:42;;;;;;;3.85;2.03;;;;;;;19.94;63.02;101258.13;5092734;28;20123;-76
2022/10/05 12:25:25;;;;;;;3.53;1.67;;;;;;;20.09;62.19;101263.59;5088599;28;20447;-76
2022/10/05 12:27:55;;;;;;;4.55;1.83;;;;;;;20.20;63.16;101253.09;5092860;28;20499;-76
2022/10/05 12:30:33;;;;;;;8.90;1.90;;;;;;;20.16;61.66;101248.88;5092832;28;20044;-76
2022/10/05 12:33:26;;;;;;;6.75;1.85;;;;;;;20.08;61.85;101253.78;5108565;27;20115;-76